Airfield :
LOGIN :

Register | Disclaimer

   EN    FR    IT 

 










Legend :    VFR   Marginal VFR   IFR   Intensive IFR   Very Intensive IFR
Visi :
Ceiling :
>= 8 km
>= 3000ft
5 to 8 km
1000 to 3000 ft
1500m to 5 km
500 to 1000 ft
800 to 1500m
200 to 500 ft
< 800m
< 200 ft
Symbols :   Thunderstorms  Fog  Heavy snow  Heavy precipitations  Wind > 20 kt
SIGMETs :     Misc.  Thunderstorms  Icing  Turbulence  Mountain Waves  Volcanic Ashes







- Airport Elevation : 157 ft
- IATA code : SXF


EDDB - Berlin Schönefeld

CURRENT METAR :
  • 271150Z 30014KT 280V340 CAVOK 23/08 Q1023 NOSIG

EXPIRED METARs :
  • 271120Z 32014G25KT 270V360 CAVOK 22/07 Q1023 NOSIG
  • 271050Z 30015KT 260V350 CAVOK 22/07 Q1023 TEMPO 31015G25KT
  • 271020Z 30013KT 260V330 CAVOK 21/07 Q1023 TEMPO 29015G25KT
  • 270950Z 30012KT 270V340 CAVOK 21/08 Q1023 TEMPO 29015G25KT
  • 270920Z 27013KT 240V300 CAVOK 20/09 Q1024 TEMPO 29015G25KT

TAF TAF EDDB
Valid from the 27 at 12:00 until the 28 at 12:00 UTC


271100Z 2712/2812 30013KT CAVOK
TEMPO 2712/2716 30015G25KT
BECMG 2716/2719 30007KT
No reported NOTAMs for that airfield.



MET'MAP, your aeronautical weather chart ! - Copyright ORBIFLY December 2007 - Disclaimer

ORBIFLY MET'MAP TEAM :

Programming & Development : Alexandra Zaïnal
Concept & Development : Baudouin d'Aumeries
Co-Development & Prog : Marc-Olivier Méhu
Technical & hardware support : Manuel Goepfert

Contact : metmap@orbifly.com




SOURCES & CREDITS :

   NOAA